• Join FlightAware (Why Join?)
  • Login
  • US Flag 
07:10AM EST


 

Airport Tracker/Info


-or-


 

Live Flight TrackerFlight Track Log ✈ SWA127 ✈ 24-Apr-2013 ✈ KMCI - KHOU

Flight Track Log - Related Links

Times and Time Zones

All times are in EDT time to prevent confusion due to time zone crossing. See the SWA127 flight status page for this flight to view local times or setup timezone preferences in your user account.

Time Position Orientation Groundspeed Altitude Reporting Facility
EDT Latitude Longitude Course Direction KTS MPH feet Rate Location/Type
08:49AM 39.3167 -94.7167 339° North 147 169 2,100  Level Kansas City TRACON
08:49AM 39.3500 -94.7333 339° North 171 197 4,500 3,720 Climbing Kansas City TRACON
08:50AM 39.4000 -94.7500 346° North 217 250 8,500 3,720 Climbing Kansas City TRACON
08:51AM 39.3997 -94.7628 268° West 204 235 9,200 1,140 Climbing Kansas City Center
08:52AM 39.4003 -94.8442 271° West 250 288 10,100 720 Climbing Kansas City Center
08:53AM 39.3161 -94.8669 192° South 332 382 10,700 2,340 Climbing Kansas City Center
08:54AM 39.2075 -94.8747 183° South 344 396 14,900 3,480 Climbing Kansas City Center
08:55AM 39.1114 -94.8875 186° South 358 412 17,900 3,120 Climbing Kansas City Center
08:56AM 39.0108 -94.8994 185° South 372 428 21,400 2,460 Climbing Kansas City Center
08:57AM 38.8878 -94.9131 185° South 397 457 23,000 1,800 Climbing Kansas City Center
08:58AM 38.7786 -94.9253 185° South 407 468 25,100 2,160 Climbing Kansas City Center
08:59AM 38.6708 -94.9539 192° South 410 472 27,500 2,460 Climbing Kansas City Center
09:00AM 38.5461 -94.9981 195° South 413 475 30,100 2,460 Climbing Kansas City Center
09:01AM 38.4386 -95.0358 195° South 417 480 32,600 2,040 Climbing Kansas City Center
09:02AM 38.3142 -95.0789 195° South 414 476 34,300 1,620 Climbing Kansas City Center
09:03AM 38.2053 -95.1150 195° South 418 481 36,000 960 Climbing Kansas City Center
09:04AM 38.0983 -95.1519 195° South 415 478 36,400 1,080 Climbing Kansas City Center
09:05AM 37.9750 -95.1953 195° South 413 475 38,300 1,560 Climbing Kansas City Center
09:06AM 37.8689 -95.2294 194° South 408 470 39,600 780 Climbing Kansas City Center
09:07AM 37.7608 -95.2700 197° South 406 467 40,000 180 Climbing Kansas City Center
09:08AM 37.6522 -95.3056 195° South 403 464 40,000  Level Kansas City Center
09:09AM 37.5228 -95.3492 195° South 401 461 40,000  Level Kansas City Center
09:10AM 37.4156 -95.3847 195° South 398 458 40,000  Level Kansas City Center
09:11AM 37.3092 -95.4194 195° South 395 455 40,000  Level Kansas City Center
09:12AM 37.2028 -95.4556 195° South 395 455 40,000  Level Kansas City Center
09:13AM 37.0953 -95.4922 195° South 397 457 40,000  Level Kansas City Center
09:14AM 36.9867 -95.5275 195° South 402 463 40,000  Level Kansas City Center
09:15AM 36.8786 -95.5636 195° South 402 463 40,000  Level Kansas City Center
09:16AM 36.7700 -95.5994 195° South 403 464 40,000  Level Kansas City Center
09:17AM 36.6392 -95.6425 195° South 405 466 40,000  Level Kansas City Center
09:18AM 36.5444 -95.6744 195° South 406 467 40,000  Level Kansas City Center
09:19AM 36.4339 -95.7097 194° South 408 470 40,000  Level Kansas City Center
09:20AM 36.3006 -95.7539 195° South 412 474 40,000  Level Kansas City Center
09:21AM 36.2006 -95.7867 195° South 415 478 40,000  Level Kansas City Center
09:23AM 36.0892 -95.8256 196° South 416 479 40,000  Level Kansas City Center
09:24AM 35.9594 -95.8717 196° South 409 471 40,000  Level Kansas City Center
09:25AM 35.8531 -95.9078 195° South 400 460 40,000  Level Kansas City Center
09:26AM 35.7456 -95.9453 196° South 400 460 40,000  Level Kansas City Center
09:27AM 35.6372 -95.9828 196° South 403 464 40,000  Level Kansas City Center
09:27AM 35.5383 -96.0183 196° South 413 475 40,000  Level Fort Worth Center
09:28AM 35.4508 -96.0453 194° South 413 475 40,000  Level Fort Worth Center
09:29AM 35.3344 -96.0853 196° South 407 468 40,000  Level Fort Worth Center
09:30AM 35.2306 -96.1225 196° South 396 456 40,000  Level Fort Worth Center
09:31AM 35.1267 -96.1594 196° South 396 456 40,000  Level Fort Worth Center
09:32AM 35.0228 -96.1942 195° South 396 456 40,000  Level Fort Worth Center
09:33AM 34.9211 -96.2311 197° South 391 450 40,000  Level Fort Worth Center
09:34AM 34.8192 -96.2653 195° South 386 444 40,000  Level Fort Worth Center
09:35AM 34.7172 -96.2994 195° South 386 444 40,000  Level Fort Worth Center
09:36AM 34.6153 -96.3336 195° South 381 438 40,000  Level Fort Worth Center
09:37AM 34.5153 -96.3675 196° South 381 438 40,000  Level Fort Worth Center
09:38AM 34.4156 -96.4014 196° South 381 438 40,000  Level Fort Worth Center
09:39AM 34.3156 -96.4353 196° South 381 438 40,000  Level Fort Worth Center
09:40AM 34.2158 -96.4692 196° South 376 433 40,000  Level Fort Worth Center
09:41AM 34.1178 -96.5028 196° South 376 433 40,000  Level Fort Worth Center
09:42AM 34.0117 -96.5367 195° South 376 433 40,000  Level Fort Worth Center
09:43AM 33.9097 -96.5725 196° South 376 433 40,000  Level Fort Worth Center
09:44AM 33.8075 -96.6036 194° South 375 432 40,000  Level Fort Worth Center
09:45AM 33.7056 -96.6369 195° South 381 438 40,000  Level Fort Worth Center
09:46AM 33.5994 -96.6728 196° South 381 438 40,000  Level Fort Worth Center
09:47AM 33.4972 -96.7061 195° South 381 438 40,000 -540 Level Fort Worth Center
09:48AM 33.3953 -96.7367 194° South 381 438 39,000 -900 Descending Fort Worth Center
09:49AM 33.2908 -96.7425 183° South 397 457 38,300 -900 Descending Fort Worth Center
09:50AM 33.1739 -96.7408 179° South 416 479 37,300 -660 Descending Fort Worth Center
09:51AM 33.0528 -96.7417 180° South 429 494 37,000 -180 Descending Fort Worth Center
09:52AM 32.9339 -96.7425 180° South 429 494 37,000  Level Fort Worth Center
09:53AM 32.8025 -96.7436 180° South 429 494 37,000  Level Fort Worth Center
09:54AM 32.6833 -96.7444 180° South 429 494 37,000  Level Fort Worth Center
09:55AM 32.5644 -96.7478 181° South 435 501 37,000  Level Fort Worth Center
09:56AM 32.4433 -96.7464 179° South 435 501 37,000  Level Fort Worth Center
09:57AM 32.3222 -96.7472 180° South 441 507 37,000  Level Fort Worth Center
09:58AM 32.2011 -96.7481 180° South 441 507 37,000  Level Fort Worth Center
09:59AM 32.0800 -96.7489 180° South 436 502 37,000  Level Fort Worth Center
10:00AM 31.9717 -96.7547 183° South 436 502 37,000 -240 Level Fort Worth Center
10:01AM 31.8400 -96.7506 178° South 434 499 36,600 -780 Descending Fort Worth Center
10:03AM 31.6597 -96.7533 181° South 436 502 35,100 -960 Descending Houston Center
10:04AM 31.5350 -96.7531 180° South 441 507 34,200 -960 Descending Houston Center
10:05AM 31.4075 -96.7547 181° South 449 517 33,200 -1,020 Descending Houston Center
10:06AM 31.2814 -96.7247 169° South 461 531 32,200 -1,020 Descending Houston Center
10:07AM 31.1564 -96.6619 157° South 476 548 31,200 -960 Descending Houston Center
10:08AM 31.0306 -96.6003 157° South 482 555 30,300 -960 Descending Houston Center
10:09AM 30.9047 -96.5397 158° South 482 555 29,300 -2,040 Descending Houston Center
10:10AM 30.7783 -96.4800 158° South 483 556 26,200 -3,060 Descending Houston Center
10:11AM 30.6558 -96.4206 157° South 472 543 23,000 -3,300 Descending Houston Center
10:12AM 30.5217 -96.3564 158° South 440 506 19,500 -3,000 Descending Houston Center
10:13AM 30.4394 -96.3175 158° South 416 479 17,700 -2,460 Descending Houston Center
10:13AM 30.4139 -96.3061 159° South 416 479 17,000 -3,000 Descending Houston Center
10:14AM 30.3150 -96.2586 157° South 400 460 14,000 -2,880 Descending Houston Center
10:15AM 30.2081 -96.2086 158° South 392 451 11,100 -1,380 Descending Houston Center
10:16AM 30.1069 -96.1542 155° Southeast 368 423 11,100  Level Houston Center
10:17AM 30.0422 -96.0600 128° Southeast 369 425 11,100  Level Houston Center
10:18AM 29.9814 -95.9633 126° Southeast 373 429 11,100 -60 Level Houston Center
10:19AM 29.9225 -95.8664 125° Southeast 371 427 11,000 -60 Descending Houston Center
10:20AM 29.8606 -95.7606 124° Southeast 373 429 11,000 -60 Level Houston Center
10:21AM 29.8089 -95.6750 125° Southeast 376 433 10,900 -600 Descending Houston Center
10:22AM 29.7453 -95.5717 125° Southeast 314 361 9,800 -1,260 Descending Houston Center
10:24AM 29.6911 -95.4825 125° Southeast 313 360 8,100 -1,500 Descending Houston Center
10:25AM 29.6428 -95.4039 125° Southeast 304 350 6,600 -1,140 Descending Houston Center
10:25AM 29.5917 -95.3400 133° Southeast 259 298 5,900 -840 Descending Houston Center
10:27AM 29.5447 -95.2856 135° Southeast 234 269 5,100 -900 Descending Houston Center
10:28AM 29.4958 -95.2339 137° Southeast 238 274 4,100 -900 Descending Houston Center
10:29AM 29.4628 -95.1708 121° Southeast 225 259 3,300 -840 Descending Houston Center
10:30AM 29.5033 -95.1344 38° Northeast 176 203 2,400 -540 Descending Houston Center
10:31AM 29.5439 -95.1594 332° Northwest 170 196 2,100 -240 Descending Houston Center
10:32AM 29.5719 -95.1933 314° West 130 150 1,900 -420 Descending Houston Center
10:33AM 29.5956 -95.2219 314° West 116 133 1,300 -660 Descending Houston Center
10:34AM 29.6167 -95.2458 315° West 116 133 700 -660 Descending Houston Center